Time;durP1;ratioP1;P1;durP2;ratioP2;P2;SDS_P1;SDS_P2;PMS_P1;PMS_P2;Temp;Humidity;BMP_temperature;BMP_pressure;BME280_temperature;BME280_humidity;BME280_pressure;Samples;Min_cycle;Max_cycle;Signal;HPM_P1;HPM_P2
2022/02/09 00:01:48;;;;;;;11.90;6.15;;;;;;;8.34;77.29;100578.34;1895308;75;21171;-68
2022/02/09 00:03:29;;;;;;;12.35;5.80;;;;;;;8.33;77.52;100577.92;1886958;75;21059;-68
2022/02/09 00:06:01;;;;;;;21.05;7.67;;;;;;;8.34;77.66;100573.53;1916424;75;21140;-65
2022/02/09 00:08:28;;;;;;;26.27;12.43;;;;;;;8.34;77.75;100574.41;1900326;75;21603;-69
2022/02/09 00:11:00;;;;;;;14.98;7.90;;;;;;;8.36;77.83;100567.34;1916380;75;21122;-61
2022/02/09 00:21:56;;;;;;;22.27;9.68;;;;;;;8.35;78.18;100556.89;1916422;75;21130;-61
2022/02/09 00:27:07;;;;;;;15.15;8.00;;;;;;;8.40;78.39;100550.58;1892436;75;21015;-61
2022/02/09 00:37:22;;;;;;;20.82;10.20;;;;;;;8.44;78.42;100560.56;1916408;75;21031;-61
2022/02/09 01:40:01;;;;;;;16.32;8.55;;;;;;;7.86;79.41;100594.70;1868799;74;21174;-59
2022/02/09 01:56:12;;;;;;;7.15;4.22;;;;;;;7.44;80.11;100602.91;1870446;77;21531;-58
2022/02/09 01:58:40;;;;;;;8.03;4.00;;;;;;;7.38;80.21;100602.63;1826941;77;21144;-59
2022/02/09 02:01:09;;;;;;;8.00;4.28;;;;;;;7.38;80.15;100598.70;1824290;79;21453;-59
2022/02/09 02:03:38;;;;;;;7.83;4.40;;;;;;;7.43;79.98;100605.11;1824386;77;21108;-58
2022/02/09 02:06:07;;;;;;;11.10;5.35;;;;;;;7.42;79.83;100602.09;1824286;79;21530;-59
2022/02/09 02:08:35;;;;;;;8.53;4.83;;;;;;;7.37;79.78;100605.30;1827475;77;21160;-59
2022/02/09 02:11:17;;;;;;;10.03;5.22;;;;;;;7.33;79.78;100604.52;1824245;79;21054;-60
2022/02/09 02:16:36;;;;;;;8.13;4.72;;;;;;;7.30;79.63;100602.86;1824321;79;21022;-59
2022/02/09 02:19:09;;;;;;;8.05;4.65;;;;;;;7.19;79.78;100602.26;1826914;77;21120;-59
2022/02/09 02:24:44;;;;;;;8.45;4.08;;;;;;;7.05;79.77;100604.42;1824269;79;21038;-59
2022/02/09 02:27:26;;;;;;;;;;;;;;;6.95;79.71;100603.35;1864743;77;21053;-60
2022/02/09 02:30:04;;;;;;;7.37;4.08;;;;;;;6.96;79.53;100607.67;1871242;76;20499;-59
2022/02/09 02:32:51;;;;;;;9.15;3.87;;;;;;;6.90;79.39;100610.91;1868440;76;21073;-59
2022/02/09 02:38:38;;;;;;;7.78;3.95;;;;;;;6.72;79.48;100607.00;1861164;77;21112;-61
2022/02/09 02:42:02;;;;;;;8.58;4.37;;;;;;;6.68;79.63;100621.06;1824270;79;21149;-60
2022/02/09 03:07:56;;;;;;;6.42;3.83;;;;;;;6.52;79.57;100616.65;1824305;78;21112;-59
2022/02/09 03:10:52;;;;;;;7.87;3.77;;;;;;;6.33;79.81;100621.47;1840945;77;21100;-60
2022/02/09 03:13:15;;;;;;;4.90;3.22;;;;;;;6.33;79.84;100625.39;1867115;77;21096;-61
2022/02/09 03:15:49;;;;;;;4.37;2.85;;;;;;;6.33;79.77;100625.39;1869970;76;21053;-64
2022/02/09 03:18:39;;;;;;;5.62;3.65;;;;;;;6.25;79.83;100620.31;1866077;76;21163;-59
2022/02/09 03:21:02;;;;;;;4.75;2.98;;;;;;;6.17;80.05;100616.57;1867051;77;21045;-59
2022/02/09 03:23:44;;;;;;;6.37;3.70;;;;;;;6.14;80.18;100620.58;1869717;76;21074;-59
2022/02/09 03:42:44;;;;;;;7.72;3.58;;;;;;;6.18;79.87;100642.29;1807048;79;21086;-59
2022/02/09 03:48:10;;;;;;;6.75;3.55;;;;;;;6.15;80.01;100645.81;1810757;77;21112;-60
2022/02/09 03:50:44;;;;;;;6.90;3.83;;;;;;;6.18;79.84;100648.38;1807178;79;21086;-60
2022/02/09 03:55:44;;;;;;;6.85;4.20;;;;;;;6.10;79.92;100651.58;1806934;79;21532;-59
2022/02/09 03:58:10;;;;;;;6.72;3.92;;;;;;;6.07;80.05;100656.90;1810291;77;21590;-60
2022/02/09 04:00:41;;;;;;;4.05;2.35;;;;;;;6.08;80.09;100654.68;1806892;79;21083;-60
2022/02/09 04:03:14;;;;;;;4.72;2.65;;;;;;;6.01;80.11;100662.70;1824859;77;21595;-61
2022/02/09 04:05:41;;;;;;;4.35;2.55;;;;;;;5.93;80.16;100658.91;1863976;77;21050;-59
2022/02/09 04:08:14;;;;;;;3.42;1.75;;;;;;;5.89;80.11;100658.56;1860147;77;21104;-59
2022/02/09 04:10:50;;;;;;;1.80;1.20;;;;;;;5.84;79.95;100668.25;1863862;77;21073;-59
2022/02/09 04:13:40;;;;;;;3.08;1.50;;;;;;;5.71;80.02;100673.72;1863629;77;21155;-60
2022/02/09 04:38:06;;;;;;;2.58;1.55;;;;;;;5.31;79.50;100713.66;1864166;76;21061;-60
2022/02/09 04:43:24;;;;;;;4.12;2.15;;;;;;;5.25;79.32;100720.27;1793499;76;21467;-60
2022/02/09 04:56:27;;;;;;;6.50;3.80;;;;;;;5.00;79.37;100756.38;1839111;78;21057;-62
2022/02/09 04:58:52;;;;;;;7.53;4.20;;;;;;;4.97;79.39;100761.64;1836195;78;21138;-60
2022/02/09 05:04:08;;;;;;;3.90;2.17;;;;;;;4.93;79.47;100769.95;1840858;77;21127;-59
2022/02/09 05:23:46;;;;;;;10.32;5.37;;;;;;;4.69;79.39;100802.94;1824321;79;21133;-59
2022/02/09 05:28:08;;;;;;;8.48;4.25;;;;;;;4.70;79.36;100813.77;1807257;78;21140;-59
2022/02/09 05:30:31;;;;;;;11.33;4.33;;;;;;;4.66;79.44;100814.70;1823110;79;21575;-58
2022/02/09 05:33:00;;;;;;;9.50;4.42;;;;;;;4.61;79.59;100814.33;1824294;79;21438;-59
2022/02/09 05:35:29;;;;;;;10.08;5.08;;;;;;;4.63;79.46;100817.78;1827294;77;21538;-59
2022/02/09 05:37:59;;;;;;;10.35;4.95;;;;;;;4.63;79.43;100826.05;1824302;78;21124;-59
2022/02/09 05:40:29;;;;;;;8.50;3.58;;;;;;;4.62;79.46;100832.98;1820459;78;21091;-59
2022/02/09 05:42:58;;;;;;;10.95;5.40;;;;;;;4.60;79.36;100834.76;1810846;77;21015;-59
2022/02/09 05:45:39;;;;;;;14.63;6.67;;;;;;;4.55;79.31;100837.86;1806878;79;21041;-59
2022/02/09 05:48:39;;;;;;;11.10;5.62;;;;;;;4.56;79.41;100843.52;1807126;78;21047;-60
2022/02/09 05:50:40;;;;;;;7.05;3.98;;;;;;;4.54;79.48;100838.76;1807476;79;21018;-59
2022/02/09 05:53:12;;;;;;;9.18;3.90;;;;;;;4.55;79.35;100843.08;1810883;77;21073;-59
2022/02/09 05:56:05;;;;;;;9.43;4.53;;;;;;;4.51;79.21;100842.70;1807038;79;21481;-59
2022/02/09 06:00:56;;;;;;;;;;;;;;;4.51;79.08;100849.67;1866890;77;21100;-60
2022/02/09 06:03:25;;;;;;;10.30;4.90;;;;;;;4.48;79.10;100853.16;1864098;77;20106;-61
2022/02/09 06:05:53;;;;;;;10.60;5.35;;;;;;;4.46;79.16;100856.23;1864456;77;21460;-61
2022/02/09 06:08:24;;;;;;;12.30;5.65;;;;;;;4.45;79.19;100844.94;1863151;77;21073;-62
2022/02/09 06:11:09;;;;;;;11.35;4.90;;;;;;;4.51;79.15;100847.91;1863094;77;21115;-62
2022/02/09 06:13:44;;;;;;;12.18;5.85;;;;;;;4.55;79.21;100840.92;1862197;77;21057;-60
2022/02/09 06:21:19;;;;;;;11.85;5.70;;;;;;;4.59;79.17;100851.31;1862885;77;21073;-62
2022/02/09 06:23:48;;;;;;;10.35;6.20;;;;;;;4.64;79.11;100857.30;1864157;77;21626;-61
2022/02/09 06:26:17;;;;;;;12.95;5.67;;;;;;;4.62;79.19;100862.12;1864207;77;21049;-58
2022/02/09 06:28:47;;;;;;;12.23;5.83;;;;;;;4.62;79.19;100858.22;1864061;77;21088;-60
2022/02/09 06:31:16;;;;;;;15.10;7.20;;;;;;;4.63;79.18;100859.95;1857283;76;21054;-59
2022/02/09 06:33:45;;;;;;;12.03;6.47;;;;;;;4.64;79.23;100860.36;1857927;77;21119;-59
2022/02/09 06:36:15;;;;;;;11.12;6.83;;;;;;;4.71;79.12;100860.70;1864056;77;21116;-59
2022/02/09 06:38:44;;;;;;;12.50;6.12;;;;;;;4.72;79.05;100866.36;1864142;77;21017;-60
2022/02/09 06:41:12;;;;;;;11.63;6.62;;;;;;;4.60;79.21;100876.48;1862344;76;21130;-58
2022/02/09 06:43:41;;;;;;;10.28;5.65;;;;;;;4.60;79.36;100871.27;1867247;77;21387;-60
2022/02/09 06:46:10;;;;;;;11.70;6.22;;;;;;;4.66;79.22;100879.91;1877676;75;21556;-60
2022/02/09 06:48:40;;;;;;;13.10;6.67;;;;;;;4.69;79.16;100873.36;1864290;75;21076;-61
2022/02/09 06:51:13;;;;;;;11.25;5.92;;;;;;;4.72;79.08;100869.39;1870395;77;21134;-61
2022/02/09 06:54:03;;;;;;;9.85;5.28;;;;;;;4.73;79.09;100882.87;1869763;76;21053;-59
2022/02/09 06:56:09;;;;;;;13.32;6.55;;;;;;;4.75;79.10;100885.02;1860531;77;21151;-58
2022/02/09 07:01:10;;;;;;;14.83;6.92;;;;;;;4.75;78.88;100887.62;1870826;75;21142;-59
2022/02/09 07:03:39;;;;;;;16.82;7.87;;;;;;;4.74;78.87;100896.31;1895642;75;21028;-58
2022/02/09 07:06:08;;;;;;;13.25;6.20;;;;;;;4.74;78.76;100903.72;1902521;75;21012;-59
2022/02/09 07:08:37;;;;;;;17.17;7.78;;;;;;;4.72;78.71;100899.38;1860382;75;21155;-59
2022/02/09 07:11:05;;;;;;;17.20;8.33;;;;;;;4.68;78.69;100906.83;1824385;79;21128;-59
2022/02/09 07:13:34;;;;;;;19.00;7.50;;;;;;;4.64;78.67;100906.86;1824133;79;21128;-59
2022/02/09 07:16:05;;;;;;;18.48;8.30;;;;;;;4.63;78.73;100902.54;1824253;79;21066;-59
2022/02/09 07:18:36;;;;;;;18.98;9.05;;;;;;;4.63;78.66;100909.52;1840728;77;21045;-60
2022/02/09 07:21:15;;;;;;;19.00;7.97;;;;;;;4.60;78.71;100904.32;1870420;76;21107;-58
2022/02/09 07:23:48;;;;;;;19.00;8.35;;;;;;;4.55;78.85;100913.94;1867620;76;21049;-58
2022/02/09 07:26:42;;;;;;;21.12;8.60;;;;;;;4.54;78.95;100914.84;1870095;77;21116;-58
2022/02/09 07:29:00;;;;;;;19.90;8.83;;;;;;;4.57;78.85;100927.37;1868753;76;21089;-59
2022/02/09 07:31:29;;;;;;;21.00;9.55;;;;;;;4.62;78.76;100926.88;1870490;77;21130;-59
2022/02/09 07:33:59;;;;;;;16.75;7.92;;;;;;;4.69;78.67;100933.35;1867086;77;21057;-58
2022/02/09 07:36:31;;;;;;;18.07;8.53;;;;;;;4.72;78.56;100935.48;1867002;77;21170;-59
2022/02/09 07:38:59;;;;;;;19.00;8.25;;;;;;;4.73;78.44;100936.34;1870333;76;21092;-59
2022/02/09 07:41:28;;;;;;;23.50;8.73;;;;;;;4.65;78.50;100946.88;1871504;76;21554;-60
2022/02/09 07:46:38;;;;;;;21.93;9.75;;;;;;;4.68;78.45;100951.17;1885150;76;21103;-59
2022/02/09 07:49:06;;;;;;;23.35;10.25;;;;;;;4.61;78.46;100956.47;1885667;76;21166;-60
2022/02/09 07:54:08;;;;;;;22.40;8.33;;;;;;;4.56;78.67;100968.69;1886269;76;21072;-60
2022/02/09 07:56:39;;;;;;;22.60;9.38;;;;;;;4.56;78.54;100972.60;1885946;76;21017;-61
2022/02/09 07:59:10;;;;;;;19.92;9.05;;;;;;;4.55;78.59;100976.08;1851717;76;21050;-60
2022/02/09 08:01:40;;;;;;;21.82;9.40;;;;;;;4.55;78.63;100978.69;1847854;78;21638;-60
2022/02/09 08:04:09;;;;;;;17.98;8.33;;;;;;;4.54;78.55;100984.80;1847889;77;21478;-60
2022/02/09 08:06:40;;;;;;;19.40;8.20;;;;;;;4.42;78.68;100987.52;1848112;78;21057;-60
2022/02/09 08:09:20;;;;;;;16.00;6.45;;;;;;;4.40;78.72;100993.19;1850411;76;21497;-59
2022/02/09 08:11:49;;;;;;;18.55;8.28;;;;;;;4.37;78.85;100999.72;1846922;77;21031;-59
2022/02/09 08:28:20;;;;;;;17.77;8.00;;;;;;;4.31;78.62;101008.47;1854264;77;20998;-61
2022/02/09 08:33:18;;;;;;;18.30;8.05;;;;;;;4.30;78.56;101005.87;1854213;77;21108;-59
2022/02/09 08:35:39;;;;;;;23.38;9.60;;;;;;;4.31;78.52;101008.47;1850467;77;21123;-60
2022/02/09 08:38:07;;;;;;;24.45;9.95;;;;;;;4.32;78.50;101011.97;1854476;77;21157;-61
2022/02/09 08:40:36;;;;;;;24.12;9.78;;;;;;;4.35;78.44;101010.61;1854266;77;21472;-59
2022/02/09 08:43:05;;;;;;;18.20;7.97;;;;;;;4.35;78.39;101021.04;1855390;77;21064;-61
2022/02/09 08:45:34;;;;;;;19.55;8.98;;;;;;;4.32;78.43;101018.48;1856903;77;21467;-60
2022/02/09 08:48:03;;;;;;;16.87;7.58;;;;;;;4.29;78.52;101026.31;1856926;77;21134;-60
2022/02/09 08:50:32;;;;;;;19.57;8.43;;;;;;;4.30;78.46;101023.70;1856898;77;21126;-60
2022/02/09 08:53:01;;;;;;;22.58;8.98;;;;;;;4.26;78.34;101018.09;1856895;77;21594;-60
2022/02/09 08:55:30;;;;;;;22.85;9.90;;;;;;;4.23;78.45;101027.23;1856858;77;21574;-61
2022/02/09 08:57:58;;;;;;;20.52;8.48;;;;;;;4.23;78.59;101031.14;1856880;77;21040;-60
2022/02/09 09:00:31;;;;;;;17.02;7.12;;;;;;;4.27;78.58;101038.50;1856939;77;21091;-59
2022/02/09 09:03:10;;;;;;;17.62;8.38;;;;;;;4.27;78.55;101035.89;1856853;77;21113;-58
2022/02/09 09:05:44;;;;;;;15.00;7.78;;;;;;;4.28;78.37;101041.10;1856623;77;21614;-59
2022/02/09 09:08:40;;;;;;;21.57;8.88;;;;;;;4.25;78.27;101042.42;1856792;77;21001;-59
2022/02/09 10:34:25;;;;;;;14.55;5.30;;;;;;;3.73;78.18;101123.09;1880306;76;21038;-65
2022/02/09 10:36:51;;;;;;;14.45;6.37;;;;;;;3.77;78.24;101122.64;1885850;76;21046;-63
2022/02/09 10:39:33;;;;;;;11.03;5.67;;;;;;;3.80;78.17;101131.72;1887203;76;21109;-64
2022/02/09 10:42:13;;;;;;;7.05;4.05;;;;;;;3.82;78.10;101129.56;1886051;76;21549;-63
2022/02/09 10:44:51;;;;;;;12.65;6.15;;;;;;;3.83;78.05;101140.39;1884106;76;21094;-66
2022/02/09 10:47:27;;;;;;;13.35;6.25;;;;;;;3.83;77.97;101155.16;1883720;76;21117;-62
2022/02/09 10:50:11;;;;;;;10.55;5.95;;;;;;;3.84;77.95;101157.77;1844407;78;21052;-63
2022/02/09 10:52:41;;;;;;;;;;;;;;;3.86;77.87;101162.53;1806994;78;21546;-62
2022/02/09 10:55:31;;;;;;;12.88;6.62;;;;;;;3.89;77.78;101165.98;1853711;76;20270;-64
2022/02/09 10:58:00;;;;;;;12.53;6.33;;;;;;;3.90;77.81;101163.83;1879957;76;21153;-64
2022/02/09 11:00:29;;;;;;;12.43;6.05;;;;;;;3.84;77.77;101165.58;1879040;75;21052;-63
2022/02/09 11:02:59;;;;;;;9.73;5.67;;;;;;;3.82;77.74;101169.94;1878512;76;21488;-66
2022/02/09 11:05:28;;;;;;;13.15;5.95;;;;;;;3.85;77.79;101172.54;1879933;76;21511;-69
2022/02/09 11:07:57;;;;;;;10.88;5.17;;;;;;;3.82;77.68;101176.45;1879732;75;21495;-66
2022/02/09 11:10:26;;;;;;;14.55;6.17;;;;;;;3.83;77.54;101176.86;1871080;76;21100;-65
2022/02/09 11:12:56;;;;;;;11.12;5.75;;;;;;;3.89;77.57;101179.87;1874255;76;21249;-66
2022/02/09 11:15:25;;;;;;;9.13;5.05;;;;;;;3.83;77.37;101183.82;1871828;76;21145;-67
2022/02/09 11:17:55;;;;;;;10.05;3.67;;;;;;;3.75;77.55;101185.16;1879906;76;21119;-64
2022/02/09 11:20:30;;;;;;;10.75;5.00;;;;;;;3.75;77.31;101189.06;1879835;76;21130;-66
2022/02/09 11:22:57;;;;;;;11.08;5.33;;;;;;;3.72;77.26;101191.67;1879690;76;21580;-66
2022/02/09 11:25:31;;;;;;;11.35;5.10;;;;;;;3.72;77.36;101190.81;1879865;76;21503;-66
2022/02/09 11:28:31;;;;;;;10.88;4.70;;;;;;;3.70;77.33;101196.02;1879659;76;21135;-70
2022/02/09 11:31:11;;;;;;;12.15;5.62;;;;;;;3.70;77.19;101189.95;1876674;75;21138;-65
2022/02/09 11:34:02;;;;;;;8.18;3.60;;;;;;;3.71;77.10;101196.47;1873957;76;21123;-64
2022/02/09 11:36:36;;;;;;;6.35;3.10;;;;;;;3.66;77.10;101198.21;1877711;75;21137;-64
2022/02/09 11:39:13;;;;;;;;;;;;;;;3.69;77.21;101207.33;1882624;75;21069;-66
2022/02/09 11:41:38;;;;;;;12.00;5.45;;;;;;;3.72;77.04;101204.69;1891334;75;20114;-64
2022/02/09 11:50:03;;;;;;;9.90;4.62;;;;;;;3.61;77.09;101219.05;1881920;76;21051;-67
2022/02/09 11:52:28;;;;;;;10.78;4.10;;;;;;;3.62;76.99;101223.84;1871963;76;21035;-68
2022/02/09 12:00:51;;;;;;;3.55;2.70;;;;;;;3.66;76.70;101231.62;1816114;77;21505;-70
2022/02/09 12:11:37;;;;;;;14.00;6.55;;;;;;;3.61;76.45;101251.59;1753633;79;21115;-70
2022/02/09 12:19:36;;;;;;;15.48;4.75;;;;;;;3.60;76.38;101260.30;1853359;77;21049;-66
2022/02/09 12:22:11;;;;;;;11.73;4.87;;;;;;;3.64;76.17;101257.25;1851918;76;21033;-65
2022/02/09 12:24:36;;;;;;;15.50;5.30;;;;;;;3.68;75.99;101249.86;1852698;75;21126;-68
2022/02/09 12:27:11;;;;;;;10.82;5.28;;;;;;;3.67;76.03;101255.92;1852182;77;21547;-66
2022/02/09 12:29:46;;;;;;;10.70;5.05;;;;;;;3.67;76.09;101258.52;1852262;77;21019;-67
2022/02/09 12:32:20;;;;;;;13.55;5.35;;;;;;;3.74;76.09;101261.55;1850847;77;21044;-69
2022/02/09 12:35:05;;;;;;;10.23;4.35;;;;;;;3.77;75.92;101265.46;1851628;77;21085;-66
2022/02/09 12:37:37;;;;;;;12.25;5.47;;;;;;;3.78;75.98;101275.44;1852245;77;21041;-67
2022/02/09 12:40:08;;;;;;;13.58;4.92;;;;;;;3.81;75.90;101277.59;1852769;77;21125;-64
2022/02/09 12:42:42;;;;;;;14.05;5.37;;;;;;;3.80;75.83;101282.39;1851378;77;21505;-67
2022/02/09 12:45:19;;;;;;;10.30;4.62;;;;;;;3.83;75.85;101283.67;1859700;76;21135;-67
2022/02/09 12:48:04;;;;;;;14.98;5.90;;;;;;;3.81;75.45;101289.77;1861560;76;21140;-67
2022/02/09 12:50:40;;;;;;;13.62;4.95;;;;;;;3.82;75.47;101300.19;1847987;77;21137;-68
2022/02/09 12:53:08;;;;;;;10.03;4.70;;;;;;;3.86;75.45;101301.91;1850580;76;21521;-66
2022/02/09 12:55:41;;;;;;;9.93;5.25;;;;;;;3.88;75.37;101308.87;1848056;78;21043;-65
2022/02/09 12:58:12;;;;;;;12.88;5.30;;;;;;;3.88;75.25;101311.03;1848146;78;21129;-65
2022/02/09 13:00:46;;;;;;;11.65;5.25;;;;;;;3.89;75.21;101314.49;1848031;78;21086;-65
2022/02/09 13:03:18;;;;;;;12.18;5.58;;;;;;;3.88;75.03;101327.10;1848099;78;21486;-65
2022/02/09 13:05:50;;;;;;;11.80;5.85;;;;;;;3.77;74.89;101341.00;1847884;77;21082;-65
2022/02/09 13:08:23;;;;;;;14.78;6.53;;;;;;;3.66;74.88;101345.36;1848006;78;21035;-65
2022/02/09 13:11:06;;;;;;;12.00;5.50;;;;;;;3.69;75.11;101358.39;1866425;76;21063;-66
2022/02/09 13:13:33;;;;;;;16.10;5.83;;;;;;;3.73;75.20;101358.81;1883501;76;21122;-65
2022/02/09 13:16:17;;;;;;;15.75;5.40;;;;;;;3.77;75.12;101361.84;1884201;76;21172;-64
2022/02/09 13:25:16;;;;;;;8.08;3.42;;;;;;;3.75;74.81;101374.00;1884233;76;21039;-65
2022/02/09 13:53:36;;;;;;;9.63;3.62;;;;;;;3.50;74.19;101417.39;1868600;77;21162;-65
2022/02/09 14:07:01;;;;;;;11.25;4.65;;;;;;;3.43;74.09;101439.97;1868759;77;21051;-64
2022/02/09 14:17:20;;;;;;;11.15;3.80;;;;;;;3.29;73.66;101440.36;1868704;77;21024;-63
2022/02/09 14:53:12;;;;;;;6.58;3.20;;;;;;;3.06;73.47;101506.23;1888962;76;21088;-68
2022/02/09 14:58:23;;;;;;;14.03;3.55;;;;;;;2.95;73.52;101531.34;1888672;76;21091;-68
2022/02/09 15:01:02;;;;;;;10.85;3.35;;;;;;;2.93;73.50;101527.83;1887703;76;21056;-69
2022/02/09 15:14:19;;;;;;;8.75;4.05;;;;;;;2.87;73.59;101542.11;1820164;77;21098;-69
2022/02/09 15:17:03;;;;;;;6.10;3.02;;;;;;;2.88;73.51;101560.33;1868940;76;21154;-68
2022/02/09 15:22:03;;;;;;;6.47;3.10;;;;;;;2.80;73.36;101552.03;1848432;76;21108;-68
2022/02/09 15:24:51;;;;;;;5.12;2.90;;;;;;;2.80;73.27;101557.23;1888294;75;21064;-68
2022/02/09 15:27:10;;;;;;;7.53;3.22;;;;;;;2.80;73.25;101555.50;1882632;76;21033;-68
2022/02/09 15:29:38;;;;;;;10.30;3.27;;;;;;;2.80;73.27;101562.44;1888879;76;21537;-69
2022/02/09 15:32:18;;;;;;;15.08;4.10;;;;;;;2.73;73.20;101573.66;1888985;76;21045;-69
2022/02/09 15:34:46;;;;;;;8.00;3.25;;;;;;;2.63;72.82;101576.64;1887627;76;21056;-67
2022/02/09 15:37:37;;;;;;;7.37;3.42;;;;;;;2.54;72.86;101570.94;1888137;76;21057;-67
2022/02/09 15:40:04;;;;;;;9.05;3.67;;;;;;;2.49;72.92;101581.72;1885892;76;21028;-70
2022/02/09 15:56:19;;;;;;;8.55;4.22;;;;;;;2.42;72.83;101602.91;1888871;76;21088;-69
2022/02/09 16:09:30;;;;;;;13.18;4.90;;;;;;;1.76;72.79;101625.64;1888726;76;21024;-64
2022/02/09 16:25:15;;;;;;;10.43;4.47;;;;;;;1.42;73.38;101643.41;1857069;77;21190;-70
2022/02/09 16:46:38;;;;;;;31.50;11.63;;;;;;;1.49;73.86;101664.67;1837171;76;21577;-71
2022/02/09 16:49:10;;;;;;;27.22;12.55;;;;;;;1.57;73.80;101663.91;1856730;77;21065;-71
2022/02/09 16:51:50;;;;;;;34.30;12.98;;;;;;;1.64;73.73;101668.33;1856532;77;21025;-72
2022/02/09 16:54:28;;;;;;;19.70;6.28;;;;;;;1.69;73.65;101669.27;1854390;77;21021;-72
2022/02/09 17:21:20;;;;;;;34.20;9.70;;;;;;;1.83;73.40;101672.91;1856846;77;21472;-69
2022/02/09 17:23:51;;;;;;;22.42;7.17;;;;;;;1.78;73.40;101674.56;1856878;77;21033;-69
2022/02/09 17:26:20;;;;;;;20.30;7.60;;;;;;;1.76;73.40;101678.88;1856760;77;21025;-70
2022/02/09 17:28:57;;;;;;;22.30;7.40;;;;;;;1.74;73.33;101687.94;1856790;77;21472;-62
2022/02/09 17:53:24;;;;;;;17.17;6.50;;;;;;;1.70;73.22;101693.09;1856741;77;21017;-62
2022/02/09 17:56:06;;;;;;;31.57;8.85;;;;;;;1.65;73.10;101697.34;1857007;77;21028;-63
2022/02/09 17:58:46;;;;;;;11.25;6.03;;;;;;;1.57;73.11;101705.44;1856925;77;21100;-62
2022/02/09 18:01:11;;;;;;;23.55;8.68;;;;;;;1.50;73.21;101703.20;1857543;76;21040;-59
2022/02/09 18:03:41;;;;;;;20.65;6.00;;;;;;;1.41;73.27;101700.05;1856814;77;21068;-62
2022/02/09 18:06:17;;;;;;;15.45;6.50;;;;;;;1.38;73.37;101701.72;1856997;77;21005;-70
2022/02/09 18:08:53;;;;;;;17.00;6.25;;;;;;;1.35;73.43;101707.75;1857694;76;21053;-70
2022/02/09 18:43:32;;;;;;;15.30;5.90;;;;;;;1.43;73.68;101739.86;1888690;76;21553;-72
2022/02/09 18:57:02;;;;;;;25.50;9.03;;;;;;;1.26;73.88;101756.92;1886037;76;21033;-73
2022/02/09 18:59:31;;;;;;;30.75;10.90;;;;;;;1.19;73.92;101755.07;1883261;76;21045;-71
2022/02/09 19:04:47;;;;;;;17.40;6.12;;;;;;;1.09;74.10;101760.11;1885990;76;21088;-71
2022/02/09 19:15:48;;;;;;;16.52;8.25;;;;;;;0.98;74.25;101769.44;1885933;76;21052;-71
2022/02/09 19:26:23;;;;;;;13.62;6.80;;;;;;;0.96;74.53;101768.55;1862102;76;21072;-73
2022/02/09 19:31:40;;;;;;;14.28;6.15;;;;;;;1.04;74.59;101766.94;1766300;80;21278;-70
2022/02/09 19:45:10;;;;;;;29.15;10.78;;;;;;;1.21;74.42;101776.72;1885917;76;21126;-71
2022/02/09 19:47:18;;;;;;;21.20;12.30;;;;;;;1.20;74.36;101774.96;1882842;76;21040;-71
2022/02/09 19:52:30;;;;;;;23.90;8.88;;;;;;;1.20;74.30;101777.16;1886018;76;21667;-72
2022/02/09 19:55:20;;;;;;;27.45;10.28;;;;;;;1.19;74.33;101768.05;1883851;76;21114;-71
2022/02/09 19:57:37;;;;;;;19.30;7.47;;;;;;;1.18;74.33;101770.17;1883785;76;21099;-72
2022/02/09 20:00:12;;;;;;;18.87;8.85;;;;;;;1.17;74.38;101778.83;1885908;76;21021;-71
2022/02/09 20:02:45;;;;;;;13.75;7.70;;;;;;;1.17;74.43;101780.13;1885782;76;21089;-71
2022/02/09 20:05:09;;;;;;;20.43;8.70;;;;;;;1.19;74.48;101783.18;1885155;76;21045;-72
2022/02/09 20:07:37;;;;;;;19.90;8.95;;;;;;;1.23;74.54;101793.19;1885915;76;21126;-72
2022/02/09 20:10:07;;;;;;;22.60;7.60;;;;;;;1.23;74.66;101787.99;1885901;76;21072;-72
2022/02/09 20:12:35;;;;;;;29.00;8.75;;;;;;;1.25;74.74;101787.59;1886066;76;21048;-72
2022/02/09 20:15:04;;;;;;;24.92;9.08;;;;;;;1.28;74.65;101787.65;1885999;76;21044;-72
2022/02/09 20:17:33;;;;;;;17.70;8.03;;;;;;;1.28;74.61;101786.36;1886062;76;21052;-72
2022/02/09 20:20:02;;;;;;;26.80;9.78;;;;;;;1.27;74.60;101793.27;1886044;76;21052;-73
2022/02/09 20:22:31;;;;;;;24.07;9.88;;;;;;;1.25;74.56;101794.08;1886051;76;21056;-73
2022/02/09 20:25:00;;;;;;;18.80;8.10;;;;;;;1.23;74.53;101798.38;1886105;76;21161;-72
2022/02/09 20:27:29;;;;;;;26.57;9.63;;;;;;;1.22;74.50;101800.50;1885968;76;21053;-73
2022/02/09 20:29:58;;;;;;;23.40;9.48;;;;;;;1.20;74.49;101806.09;1886122;76;21503;-72
2022/02/09 20:32:31;;;;;;;20.70;8.93;;;;;;;1.19;74.50;101800.47;1886070;76;21052;-72
2022/02/09 20:34:57;;;;;;;18.65;7.10;;;;;;;1.19;74.50;101808.26;1885700;76;21114;-71
2022/02/09 20:37:27;;;;;;;22.02;9.23;;;;;;;1.19;74.52;101808.26;1886057;76;21589;-72
2022/02/09 20:42:53;;;;;;;19.73;7.20;;;;;;;1.18;74.56;101815.58;1886042;76;21073;-73
2022/02/09 20:45:21;;;;;;;19.00;6.50;;;;;;;1.14;74.64;101815.55;1882759;76;21052;-72
2022/02/09 20:47:45;;;;;;;20.40;7.15;;;;;;;1.17;74.73;101816.44;1885110;74;21048;-71
2022/02/09 20:50:13;;;;;;;21.82;7.47;;;;;;;1.18;74.75;101822.06;1885715;76;21151;-72
2022/02/09 20:52:42;;;;;;;13.80;6.10;;;;;;;1.21;74.73;101818.23;1885936;76;21548;-72
2022/02/09 20:55:11;;;;;;;18.80;7.45;;;;;;;1.23;74.72;101820.42;1886023;76;21056;-71
2022/02/09 20:57:39;;;;;;;18.73;6.58;;;;;;;1.26;74.67;101828.27;1886005;76;21100;-71
2022/02/09 21:00:17;;;;;;;11.78;5.00;;;;;;;1.22;74.65;101821.27;1886020;76;21044;-71
2022/02/09 21:05:33;;;;;;;18.35;5.67;;;;;;;1.11;74.67;101825.86;1885911;76;21016;-71
2022/02/09 21:08:24;;;;;;;15.45;6.22;;;;;;;1.03;74.76;101822.23;1883120;76;21044;-71
2022/02/09 21:10:53;;;;;;;12.37;5.47;;;;;;;1.00;74.85;101820.91;1884292;76;21561;-71
2022/02/09 21:14:10;;;;;;;10.85;5.17;;;;;;;0.97;74.92;101829.92;1884936;76;21543;-70
2022/02/09 21:16:13;;;;;;;8.10;4.20;;;;;;;0.95;74.96;101827.73;1850461;76;21193;-71
2022/02/09 21:45:50;;;;;;;10.72;4.58;;;;;;;0.94;74.87;101841.53;1815756;76;21209;-71
2022/02/09 22:28:35;;;;;;;11.30;4.60;;;;;;;1.02;75.46;101836.08;1868829;77;21047;-70
2022/02/09 22:34:34;;;;;;;9.75;3.85;;;;;;;1.01;75.53;101835.61;1884822;75;21291;-66
2022/02/09 22:54:52;;;;;;;31.23;15.68;;;;;;;1.29;75.44;101850.36;1878080;76;21029;-61
2022/02/09 22:57:33;;;;;;;33.40;16.32;;;;;;;1.33;75.37;101852.19;1873520;76;21130;-61
2022/02/09 23:00:00;;;;;;;25.23;13.75;;;;;;;1.38;75.33;101845.32;1877912;76;21065;-61
2022/02/09 23:02:29;;;;;;;21.45;9.78;;;;;;;1.44;75.27;101845.84;1878575;76;21060;-63
2022/02/09 23:05:17;;;;;;;12.13;6.80;;;;;;;1.44;75.28;101851.94;1879515;76;21107;-62
2022/02/09 23:07:49;;;;;;;9.23;5.33;;;;;;;1.48;75.27;101857.62;1876426;76;21147;-66
2022/02/09 23:10:05;;;;;;;8.88;4.20;;;;;;;1.51;75.29;101856.78;1875600;76;21049;-62
2022/02/09 23:12:37;;;;;;;16.27;5.83;;;;;;;1.53;75.33;101853.38;1878285;76;21175;-62
2022/02/09 23:16:06;;;;;;;7.22;4.65;;;;;;;1.55;75.25;101854.70;1878621;76;21523;-61
